sensor_id;sensor_type;location;lat;lon;timestamp;P1;durP1;ratioP1;P2;durP2;ratioP2
34828;SDS011;21042;47.620;12.188;2022-07-23T00:00:16;9.65;;;6.30;;
34828;SDS011;21042;47.620;12.188;2022-07-23T00:05:59;8.57;;;6.15;;
34828;SDS011;21042;47.620;12.188;2022-07-23T00:08:27;10.48;;;6.47;;
34828;SDS011;21042;47.620;12.188;2022-07-23T00:10:54;10.68;;;6.95;;
34828;SDS011;21042;47.620;12.188;2022-07-23T00:13:21;8.63;;;6.43;;
34828;SDS011;21042;47.620;12.188;2022-07-23T00:15:48;11.30;;;7.55;;
34828;SDS011;21042;47.620;12.188;2022-07-23T00:18:14;9.85;;;6.63;;
34828;SDS011;21042;47.620;12.188;2022-07-23T00:20:41;10.07;;;6.68;;
34828;SDS011;21042;47.620;12.188;2022-07-23T00:23:08;11.05;;;6.15;;
34828;SDS011;21042;47.620;12.188;2022-07-23T00:25:35;14.10;;;6.65;;
34828;SDS011;21042;47.620;12.188;2022-07-23T00:28:02;11.23;;;7.07;;
34828;SDS011;21042;47.620;12.188;2022-07-23T00:30:30;11.57;;;7.38;;
34828;SDS011;21042;47.620;12.188;2022-07-23T00:32:59;11.07;;;7.18;;
34828;SDS011;21042;47.620;12.188;2022-07-23T00:35:31;11.00;;;6.68;;
34828;SDS011;21042;47.620;12.188;2022-07-23T00:38:00;12.65;;;7.32;;
34828;SDS011;21042;47.620;12.188;2022-07-23T00:40:28;7.60;;;5.93;;
34828;SDS011;21042;47.620;12.188;2022-07-23T00:42:56;11.10;;;6.13;;
34828;SDS011;21042;47.620;12.188;2022-07-23T00:47:49;8.48;;;6.05;;
34828;SDS011;21042;47.620;12.188;2022-07-23T00:50:16;8.32;;;6.55;;
34828;SDS011;21042;47.620;12.188;2022-07-23T00:52:43;9.50;;;6.45;;
34828;SDS011;21042;47.620;12.188;2022-07-23T00:57:37;9.50;;;6.85;;
34828;SDS011;21042;47.620;12.188;2022-07-23T01:00:07;10.40;;;7.15;;
34828;SDS011;21042;47.620;12.188;2022-07-23T01:02:36;7.72;;;5.95;;
34828;SDS011;21042;47.620;12.188;2022-07-23T01:05:03;9.52;;;5.50;;
34828;SDS011;21042;47.620;12.188;2022-07-23T01:07:31;8.52;;;6.35;;
34828;SDS011;21042;47.620;12.188;2022-07-23T01:09:57;12.15;;;6.10;;
34828;SDS011;21042;47.620;12.188;2022-07-23T01:12:25;7.20;;;5.30;;
34828;SDS011;21042;47.620;12.188;2022-07-23T01:14:53;10.48;;;6.15;;
34828;SDS011;21042;47.620;12.188;2022-07-23T01:17:24;7.75;;;5.35;;
34828;SDS011;21042;47.620;12.188;2022-07-23T01:19:51;8.70;;;5.70;;
34828;SDS011;21042;47.620;12.188;2022-07-23T01:24:46;8.45;;;5.85;;
34828;SDS011;21042;47.620;12.188;2022-07-23T01:27:16;12.98;;;6.65;;
34828;SDS011;21042;47.620;12.188;2022-07-23T01:29:47;9.88;;;6.43;;
34828;SDS011;21042;47.620;12.188;2022-07-23T01:32:17;10.80;;;7.07;;
34828;SDS011;21042;47.620;12.188;2022-07-23T01:34:44;12.07;;;6.32;;
34828;SDS011;21042;47.620;12.188;2022-07-23T01:37:12;11.32;;;6.88;;
34828;SDS011;21042;47.620;12.188;2022-07-23T01:39:39;10.30;;;6.88;;
34828;SDS011;21042;47.620;12.188;2022-07-23T01:44:33;8.60;;;5.78;;
34828;SDS011;21042;47.620;12.188;2022-07-23T01:49:27;9.32;;;6.60;;
34828;SDS011;21042;47.620;12.188;2022-07-23T01:52:13;10.88;;;6.47;;
34828;SDS011;21042;47.620;12.188;2022-07-23T01:54:42;8.15;;;6.05;;
34828;SDS011;21042;47.620;12.188;2022-07-23T01:57:10;8.68;;;6.28;;
34828;SDS011;21042;47.620;12.188;2022-07-23T01:59:37;8.40;;;5.68;;
34828;SDS011;21042;47.620;12.188;2022-07-23T02:02:06;9.27;;;5.45;;
34828;SDS011;21042;47.620;12.188;2022-07-23T02:04:33;8.25;;;5.78;;
34828;SDS011;21042;47.620;12.188;2022-07-23T02:07:03;8.95;;;6.00;;
34828;SDS011;21042;47.620;12.188;2022-07-23T02:09:30;9.43;;;6.28;;
34828;SDS011;21042;47.620;12.188;2022-07-23T02:11:57;8.10;;;5.63;;
34828;SDS011;21042;47.620;12.188;2022-07-23T02:14:25;7.60;;;5.68;;
34828;SDS011;21042;47.620;12.188;2022-07-23T02:16:52;8.85;;;6.43;;
34828;SDS011;21042;47.620;12.188;2022-07-23T02:19:19;12.70;;;6.22;;
34828;SDS011;21042;47.620;12.188;2022-07-23T02:21:46;9.52;;;6.68;;
34828;SDS011;21042;47.620;12.188;2022-07-23T02:24:13;9.18;;;6.70;;
34828;SDS011;21042;47.620;12.188;2022-07-23T02:26:41;8.05;;;5.97;;
34828;SDS011;21042;47.620;12.188;2022-07-23T02:29:08;8.98;;;6.82;;
34828;SDS011;21042;47.620;12.188;2022-07-23T02:31:35;13.15;;;6.50;;
34828;SDS011;21042;47.620;12.188;2022-07-23T02:34:02;8.50;;;6.13;;
34828;SDS011;21042;47.620;12.188;2022-07-23T02:36:29;12.80;;;6.80;;
34828;SDS011;21042;47.620;12.188;2022-07-23T02:38:57;9.27;;;6.03;;
34828;SDS011;21042;47.620;12.188;2022-07-23T02:41:27;10.88;;;6.70;;
34828;SDS011;21042;47.620;12.188;2022-07-23T02:43:55;12.70;;;7.20;;
34828;SDS011;21042;47.620;12.188;2022-07-23T02:46:22;8.85;;;6.80;;
34828;SDS011;21042;47.620;12.188;2022-07-23T02:48:49;7.72;;;6.22;;
34828;SDS011;21042;47.620;12.188;2022-07-23T02:51:15;9.85;;;6.38;;
34828;SDS011;21042;47.620;12.188;2022-07-23T02:53:50;11.48;;;6.68;;
34828;SDS011;21042;47.620;12.188;2022-07-23T02:56:17;9.45;;;6.65;;
34828;SDS011;21042;47.620;12.188;2022-07-23T02:58:43;9.30;;;6.32;;
34828;SDS011;21042;47.620;12.188;2022-07-23T03:01:12;9.13;;;6.72;;
34828;SDS011;21042;47.620;12.188;2022-07-23T03:03:39;11.80;;;6.68;;
34828;SDS011;21042;47.620;12.188;2022-07-23T03:06:06;10.88;;;7.20;;
34828;SDS011;21042;47.620;12.188;2022-07-23T03:08:34;9.02;;;6.68;;
34828;SDS011;21042;47.620;12.188;2022-07-23T03:11:00;8.55;;;6.28;;
34828;SDS011;21042;47.620;12.188;2022-07-23T03:15:57;10.55;;;6.55;;
34828;SDS011;21042;47.620;12.188;2022-07-23T03:18:23;8.10;;;6.05;;
34828;SDS011;21042;47.620;12.188;2022-07-23T03:20:50;15.38;;;7.25;;
34828;SDS011;21042;47.620;12.188;2022-07-23T03:23:17;9.45;;;6.95;;
34828;SDS011;21042;47.620;12.188;2022-07-23T03:25:44;8.32;;;6.45;;
34828;SDS011;21042;47.620;12.188;2022-07-23T03:28:19;9.98;;;6.57;;
34828;SDS011;21042;47.620;12.188;2022-07-23T03:30:46;10.90;;;6.28;;
34828;SDS011;21042;47.620;12.188;2022-07-23T03:33:14;9.32;;;6.88;;
34828;SDS011;21042;47.620;12.188;2022-07-23T03:35:46;9.50;;;6.70;;
34828;SDS011;21042;47.620;12.188;2022-07-23T03:38:24;12.93;;;6.97;;
34828;SDS011;21042;47.620;12.188;2022-07-23T03:40:52;8.77;;;7.10;;
34828;SDS011;21042;47.620;12.188;2022-07-23T03:43:18;12.95;;;7.55;;
34828;SDS011;21042;47.620;12.188;2022-07-23T03:45:45;10.52;;;7.65;;
34828;SDS011;21042;47.620;12.188;2022-07-23T03:48:13;8.98;;;6.65;;
34828;SDS011;21042;47.620;12.188;2022-07-23T03:50:40;10.48;;;7.53;;
34828;SDS011;21042;47.620;12.188;2022-07-23T03:53:07;9.57;;;7.38;;
34828;SDS011;21042;47.620;12.188;2022-07-23T03:55:34;12.02;;;7.28;;
34828;SDS011;21042;47.620;12.188;2022-07-23T03:58:00;9.60;;;7.57;;
34828;SDS011;21042;47.620;12.188;2022-07-23T04:00:27;9.52;;;7.38;;
34828;SDS011;21042;47.620;12.188;2022-07-23T04:02:54;13.70;;;8.00;;
34828;SDS011;21042;47.620;12.188;2022-07-23T04:05:21;11.73;;;7.63;;
34828;SDS011;21042;47.620;12.188;2022-07-23T04:07:53;11.07;;;7.68;;
34828;SDS011;21042;47.620;12.188;2022-07-23T04:10:20;10.15;;;6.78;;
34828;SDS011;21042;47.620;12.188;2022-07-23T04:12:46;9.95;;;6.78;;
34828;SDS011;21042;47.620;12.188;2022-07-23T04:15:13;9.18;;;5.90;;
34828;SDS011;21042;47.620;12.188;2022-07-23T04:17:40;9.10;;;6.72;;
34828;SDS011;21042;47.620;12.188;2022-07-23T04:20:07;9.27;;;6.97;;
34828;SDS011;21042;47.620;12.188;2022-07-23T04:22:42;12.02;;;7.43;;
34828;SDS011;21042;47.620;12.188;2022-07-23T04:25:09;11.00;;;7.72;;
34828;SDS011;21042;47.620;12.188;2022-07-23T04:27:36;9.70;;;7.90;;
34828;SDS011;21042;47.620;12.188;2022-07-23T04:30:03;10.27;;;7.18;;
34828;SDS011;21042;47.620;12.188;2022-07-23T04:32:30;11.45;;;7.25;;
34828;SDS011;21042;47.620;12.188;2022-07-23T04:34:58;11.05;;;7.38;;
34828;SDS011;21042;47.620;12.188;2022-07-23T04:37:25;11.07;;;7.32;;
34828;SDS011;21042;47.620;12.188;2022-07-23T04:39:51;10.85;;;7.63;;
34828;SDS011;21042;47.620;12.188;2022-07-23T04:42:18;13.95;;;8.57;;
34828;SDS011;21042;47.620;12.188;2022-07-23T04:44:45;12.70;;;7.90;;
34828;SDS011;21042;47.620;12.188;2022-07-23T04:47:13;14.02;;;9.43;;
34828;SDS011;21042;47.620;12.188;2022-07-23T04:49:43;13.27;;;8.85;;
34828;SDS011;21042;47.620;12.188;2022-07-23T04:52:09;12.60;;;9.07;;
34828;SDS011;21042;47.620;12.188;2022-07-23T04:57:03;13.07;;;9.10;;
34828;SDS011;21042;47.620;12.188;2022-07-23T04:59:30;13.90;;;9.07;;
34828;SDS011;21042;47.620;12.188;2022-07-23T05:02:02;12.55;;;8.77;;
34828;SDS011;21042;47.620;12.188;2022-07-23T05:04:29;15.15;;;9.48;;
34828;SDS011;21042;47.620;12.188;2022-07-23T05:06:57;13.65;;;8.93;;
34828;SDS011;21042;47.620;12.188;2022-07-23T05:09:25;15.32;;;10.63;;
34828;SDS011;21042;47.620;12.188;2022-07-23T05:14:20;13.95;;;9.73;;
34828;SDS011;21042;47.620;12.188;2022-07-23T05:16:48;12.45;;;8.40;;
34828;SDS011;21042;47.620;12.188;2022-07-23T05:19:21;9.77;;;7.47;;
34828;SDS011;21042;47.620;12.188;2022-07-23T05:21:51;9.43;;;7.25;;
34828;SDS011;21042;47.620;12.188;2022-07-23T05:24:18;9.32;;;7.20;;
34828;SDS011;21042;47.620;12.188;2022-07-23T05:26:45;11.10;;;7.50;;
34828;SDS011;21042;47.620;12.188;2022-07-23T05:29:12;13.05;;;8.48;;
34828;SDS011;21042;47.620;12.188;2022-07-23T05:31:38;10.95;;;8.38;;
34828;SDS011;21042;47.620;12.188;2022-07-23T05:34:06;11.38;;;8.50;;
34828;SDS011;21042;47.620;12.188;2022-07-23T05:36:34;12.00;;;8.10;;
34828;SDS011;21042;47.620;12.188;2022-07-23T05:39:02;10.15;;;8.40;;
34828;SDS011;21042;47.620;12.188;2022-07-23T05:41:33;12.05;;;8.95;;
34828;SDS011;21042;47.620;12.188;2022-07-23T05:44:01;15.48;;;8.90;;
34828;SDS011;21042;47.620;12.188;2022-07-23T05:46:29;15.73;;;8.68;;
34828;SDS011;21042;47.620;12.188;2022-07-23T05:49:01;12.88;;;8.35;;
34828;SDS011;21042;47.620;12.188;2022-07-23T05:51:56;10.45;;;7.85;;
34828;SDS011;21042;47.620;12.188;2022-07-23T05:54:34;14.20;;;8.63;;
34828;SDS011;21042;47.620;12.188;2022-07-23T05:57:02;13.80;;;7.82;;
34828;SDS011;21042;47.620;12.188;2022-07-23T05:59:30;13.07;;;8.45;;
34828;SDS011;21042;47.620;12.188;2022-07-23T06:05:02;11.02;;;7.95;;
34828;SDS011;21042;47.620;12.188;2022-07-23T06:07:31;11.43;;;7.72;;
34828;SDS011;21042;47.620;12.188;2022-07-23T06:09:58;14.10;;;6.63;;
34828;SDS011;21042;47.620;12.188;2022-07-23T06:12:24;10.68;;;7.15;;
34828;SDS011;21042;47.620;12.188;2022-07-23T06:14:52;9.00;;;7.07;;
34828;SDS011;21042;47.620;12.188;2022-07-23T06:17:19;9.95;;;7.65;;
34828;SDS011;21042;47.620;12.188;2022-07-23T06:19:46;8.38;;;6.28;;
34828;SDS011;21042;47.620;12.188;2022-07-23T06:22:14;8.88;;;6.35;;
34828;SDS011;21042;47.620;12.188;2022-07-23T06:24:41;10.80;;;6.72;;
34828;SDS011;21042;47.620;12.188;2022-07-23T06:27:08;8.68;;;7.00;;
34828;SDS011;21042;47.620;12.188;2022-07-23T06:29:35;11.52;;;7.63;;
34828;SDS011;21042;47.620;12.188;2022-07-23T06:32:01;9.73;;;6.88;;
34828;SDS011;21042;47.620;12.188;2022-07-23T06:34:28;10.93;;;7.10;;
34828;SDS011;21042;47.620;12.188;2022-07-23T06:36:55;8.38;;;6.32;;
34828;SDS011;21042;47.620;12.188;2022-07-23T06:39:22;8.05;;;6.03;;
34828;SDS011;21042;47.620;12.188;2022-07-23T06:41:49;12.63;;;6.50;;
34828;SDS011;21042;47.620;12.188;2022-07-23T06:44:33;9.45;;;5.53;;
34828;SDS011;21042;47.620;12.188;2022-07-23T06:47:00;6.57;;;5.60;;
34828;SDS011;21042;47.620;12.188;2022-07-23T06:49:27;7.25;;;5.60;;
34828;SDS011;21042;47.620;12.188;2022-07-23T06:51:56;8.32;;;5.65;;
34828;SDS011;21042;47.620;12.188;2022-07-23T06:54:23;9.80;;;5.72;;
34828;SDS011;21042;47.620;12.188;2022-07-23T06:56:50;9.95;;;5.85;;
34828;SDS011;21042;47.620;12.188;2022-07-23T06:59:17;8.15;;;6.43;;
34828;SDS011;21042;47.620;12.188;2022-07-23T07:01:47;7.10;;;5.55;;
34828;SDS011;21042;47.620;12.188;2022-07-23T07:04:14;7.65;;;4.85;;
34828;SDS011;21042;47.620;12.188;2022-07-23T07:06:41;8.73;;;5.43;;
34828;SDS011;21042;47.620;12.188;2022-07-23T07:09:07;8.55;;;5.50;;
34828;SDS011;21042;47.620;12.188;2022-07-23T07:11:34;8.25;;;5.50;;
34828;SDS011;21042;47.620;12.188;2022-07-23T07:14:01;10.07;;;6.25;;
34828;SDS011;21042;47.620;12.188;2022-07-23T07:16:28;7.32;;;5.43;;
34828;SDS011;21042;47.620;12.188;2022-07-23T07:18:58;9.82;;;5.60;;
34828;SDS011;21042;47.620;12.188;2022-07-23T07:21:25;8.32;;;5.57;;
34828;SDS011;21042;47.620;12.188;2022-07-23T07:23:52;7.10;;;5.68;;
34828;SDS011;21042;47.620;12.188;2022-07-23T07:26:19;8.52;;;5.25;;
34828;SDS011;21042;47.620;12.188;2022-07-23T07:28:45;12.55;;;6.30;;
34828;SDS011;21042;47.620;12.188;2022-07-23T07:31:12;8.20;;;6.47;;
34828;SDS011;21042;47.620;12.188;2022-07-23T07:33:39;10.18;;;6.15;;
34828;SDS011;21042;47.620;12.188;2022-07-23T07:36:06;10.38;;;5.85;;
34828;SDS011;21042;47.620;12.188;2022-07-23T07:38:33;9.13;;;6.80;;
34828;SDS011;21042;47.620;12.188;2022-07-23T07:41:00;9.48;;;6.80;;
34828;SDS011;21042;47.620;12.188;2022-07-23T07:43:27;9.10;;;6.03;;
34828;SDS011;21042;47.620;12.188;2022-07-23T07:45:54;10.50;;;7.03;;
34828;SDS011;21042;47.620;12.188;2022-07-23T07:48:20;9.98;;;6.50;;
34828;SDS011;21042;47.620;12.188;2022-07-23T07:50:47;9.02;;;6.15;;
34828;SDS011;21042;47.620;12.188;2022-07-23T07:55:41;9.95;;;6.47;;
34828;SDS011;21042;47.620;12.188;2022-07-23T07:58:16;8.63;;;6.18;;
34828;SDS011;21042;47.620;12.188;2022-07-23T08:00:43;11.63;;;6.07;;
34828;SDS011;21042;47.620;12.188;2022-07-23T08:03:10;7.00;;;5.70;;
34828;SDS011;21042;47.620;12.188;2022-07-23T08:08:04;10.93;;;7.65;;
34828;SDS011;21042;47.620;12.188;2022-07-23T08:10:31;9.48;;;6.20;;
34828;SDS011;21042;47.620;12.188;2022-07-23T08:12:58;8.63;;;6.05;;
34828;SDS011;21042;47.620;12.188;2022-07-23T08:15:27;9.02;;;5.75;;
34828;SDS011;21042;47.620;12.188;2022-07-23T08:17:55;8.68;;;5.95;;
34828;SDS011;21042;47.620;12.188;2022-07-23T08:22:51;13.07;;;6.50;;
34828;SDS011;21042;47.620;12.188;2022-07-23T08:27:53;8.63;;;6.20;;
34828;SDS011;21042;47.620;12.188;2022-07-23T08:30:21;7.88;;;6.07;;
34828;SDS011;21042;47.620;12.188;2022-07-23T08:32:58;9.15;;;6.00;;
34828;SDS011;21042;47.620;12.188;2022-07-23T08:35:58;9.25;;;5.85;;
34828;SDS011;21042;47.620;12.188;2022-07-23T08:38:26;12.65;;;5.28;;
34828;SDS011;21042;47.620;12.188;2022-07-23T08:40:55;7.97;;;5.63;;
34828;SDS011;21042;47.620;12.188;2022-07-23T08:43:24;11.88;;;5.88;;
34828;SDS011;21042;47.620;12.188;2022-07-23T08:45:56;9.13;;;5.82;;
34828;SDS011;21042;47.620;12.188;2022-07-23T08:48:27;7.15;;;5.28;;
34828;SDS011;21042;47.620;12.188;2022-07-23T08:50:56;10.63;;;6.55;;
34828;SDS011;21042;47.620;12.188;2022-07-23T08:53:27;9.48;;;6.63;;
34828;SDS011;21042;47.620;12.188;2022-07-23T08:55:56;10.30;;;6.53;;
34828;SDS011;21042;47.620;12.188;2022-07-23T08:58:25;8.18;;;6.28;;
34828;SDS011;21042;47.620;12.188;2022-07-23T09:00:54;13.13;;;6.30;;
34828;SDS011;21042;47.620;12.188;2022-07-23T09:03:24;8.68;;;5.95;;
34828;SDS011;21042;47.620;12.188;2022-07-23T09:05:53;9.35;;;6.43;;
34828;SDS011;21042;47.620;12.188;2022-07-23T09:08:34;10.00;;;6.53;;
34828;SDS011;21042;47.620;12.188;2022-07-23T09:11:06;8.18;;;5.97;;
34828;SDS011;21042;47.620;12.188;2022-07-23T09:13:50;8.68;;;5.82;;
34828;SDS011;21042;47.620;12.188;2022-07-23T09:16:24;7.85;;;5.50;;
34828;SDS011;21042;47.620;12.188;2022-07-23T09:21:23;8.05;;;5.53;;
34828;SDS011;21042;47.620;12.188;2022-07-23T09:26:26;8.43;;;5.88;;
34828;SDS011;21042;47.620;12.188;2022-07-23T09:29:17;9.00;;;6.00;;
34828;SDS011;21042;47.620;12.188;2022-07-23T09:31:54;9.60;;;5.85;;
34828;SDS011;21042;47.620;12.188;2022-07-23T09:34:26;10.68;;;5.97;;
34828;SDS011;21042;47.620;12.188;2022-07-23T09:37:09;8.27;;;6.22;;
34828;SDS011;21042;47.620;12.188;2022-07-23T09:39:40;7.75;;;6.13;;
34828;SDS011;21042;47.620;12.188;2022-07-23T09:42:12;7.97;;;6.32;;
34828;SDS011;21042;47.620;12.188;2022-07-23T09:44:43;7.38;;;6.22;;
34828;SDS011;21042;47.620;12.188;2022-07-23T09:47:12;11.00;;;6.07;;
34828;SDS011;21042;47.620;12.188;2022-07-23T09:49:38;8.40;;;6.72;;
34828;SDS011;21042;47.620;12.188;2022-07-23T09:52:06;9.38;;;6.15;;
34828;SDS011;21042;47.620;12.188;2022-07-23T09:54:34;7.22;;;5.85;;
34828;SDS011;21042;47.620;12.188;2022-07-23T09:57:09;10.45;;;6.28;;
34828;SDS011;21042;47.620;12.188;2022-07-23T09:59:43;8.15;;;5.85;;
34828;SDS011;21042;47.620;12.188;2022-07-23T10:02:12;7.93;;;5.65;;
34828;SDS011;21042;47.620;12.188;2022-07-23T10:05:04;6.88;;;5.10;;
34828;SDS011;21042;47.620;12.188;2022-07-23T10:08:04;8.57;;;5.68;;
34828;SDS011;21042;47.620;12.188;2022-07-23T10:10:53;9.00;;;5.72;;
34828;SDS011;21042;47.620;12.188;2022-07-23T10:13:27;8.43;;;5.72;;
34828;SDS011;21042;47.620;12.188;2022-07-23T10:16:13;9.48;;;6.03;;
34828;SDS011;21042;47.620;12.188;2022-07-23T10:18:51;7.43;;;5.72;;
34828;SDS011;21042;47.620;12.188;2022-07-23T10:21:21;8.75;;;5.88;;
34828;SDS011;21042;47.620;12.188;2022-07-23T10:26:44;7.78;;;6.35;;
34828;SDS011;21042;47.620;12.188;2022-07-23T10:29:24;9.95;;;6.15;;
34828;SDS011;21042;47.620;12.188;2022-07-23T10:37:45;8.57;;;5.88;;
34828;SDS011;21042;47.620;12.188;2022-07-23T10:40:22;7.78;;;6.18;;
34828;SDS011;21042;47.620;12.188;2022-07-23T10:42:49;8.18;;;5.72;;
34828;SDS011;21042;47.620;12.188;2022-07-23T10:45:29;9.10;;;5.70;;
34828;SDS011;21042;47.620;12.188;2022-07-23T10:50:40;9.27;;;6.63;;
34828;SDS011;21042;47.620;12.188;2022-07-23T10:53:09;8.43;;;6.13;;
34828;SDS011;21042;47.620;12.188;2022-07-23T10:55:42;5.63;;;5.03;;
34828;SDS011;21042;47.620;12.188;2022-07-23T11:00:47;7.80;;;5.55;;
34828;SDS011;21042;47.620;12.188;2022-07-23T11:03:27;6.45;;;5.68;;
34828;SDS011;21042;47.620;12.188;2022-07-23T11:05:58;8.25;;;5.97;;
34828;SDS011;21042;47.620;12.188;2022-07-23T11:27:15;5.28;;;4.57;;
34828;SDS011;21042;47.620;12.188;2022-07-23T11:30:07;7.53;;;4.47;;
34828;SDS011;21042;47.620;12.188;2022-07-23T11:32:39;8.10;;;4.97;;
34828;SDS011;21042;47.620;12.188;2022-07-23T11:35:20;7.28;;;4.47;;
34828;SDS011;21042;47.620;12.188;2022-07-23T11:37:56;6.30;;;4.20;;
34828;SDS011;21042;47.620;12.188;2022-07-23T11:40:30;5.32;;;4.30;;
34828;SDS011;21042;47.620;12.188;2022-07-23T11:45:29;7.95;;;5.30;;
34828;SDS011;21042;47.620;12.188;2022-07-23T11:47:59;8.35;;;5.40;;
34828;SDS011;21042;47.620;12.188;2022-07-23T11:50:26;8.25;;;5.03;;
34828;SDS011;21042;47.620;12.188;2022-07-23T11:55:21;7.05;;;5.00;;
34828;SDS011;21042;47.620;12.188;2022-07-23T11:57:49;8.57;;;5.28;;
34828;SDS011;21042;47.620;12.188;2022-07-23T12:00:20;6.40;;;5.28;;
34828;SDS011;21042;47.620;12.188;2022-07-23T12:03:00;6.82;;;4.97;;
34828;SDS011;21042;47.620;12.188;2022-07-23T12:05:33;5.50;;;4.88;;
34828;SDS011;21042;47.620;12.188;2022-07-23T12:08:03;7.78;;;5.25;;
34828;SDS011;21042;47.620;12.188;2022-07-23T12:10:35;6.90;;;5.53;;
34828;SDS011;21042;47.620;12.188;2022-07-23T12:13:05;6.55;;;4.93;;
34828;SDS011;21042;47.620;12.188;2022-07-23T12:15:35;9.15;;;5.10;;
34828;SDS011;21042;47.620;12.188;2022-07-23T12:18:06;5.20;;;4.65;;
34828;SDS011;21042;47.620;12.188;2022-07-23T12:20:35;6.85;;;5.63;;
34828;SDS011;21042;47.620;12.188;2022-07-23T12:23:38;6.78;;;5.18;;
34828;SDS011;21042;47.620;12.188;2022-07-23T12:26:04;8.23;;;5.32;;
34828;SDS011;21042;47.620;12.188;2022-07-23T12:28:33;7.07;;;5.60;;
34828;SDS011;21042;47.620;12.188;2022-07-23T12:31:01;8.85;;;5.80;;
34828;SDS011;21042;47.620;12.188;2022-07-23T12:33:29;8.40;;;5.82;;
34828;SDS011;21042;47.620;12.188;2022-07-23T12:36:00;7.82;;;5.53;;
34828;SDS011;21042;47.620;12.188;2022-07-23T12:38:43;7.60;;;5.97;;
34828;SDS011;21042;47.620;12.188;2022-07-23T12:41:15;6.38;;;5.20;;
34828;SDS011;21042;47.620;12.188;2022-07-23T12:43:43;6.70;;;5.32;;
34828;SDS011;21042;47.620;12.188;2022-07-23T12:46:12;6.25;;;5.38;;
34828;SDS011;21042;47.620;12.188;2022-07-23T12:51:24;6.78;;;5.55;;
34828;SDS011;21042;47.620;12.188;2022-07-23T12:53:55;6.82;;;5.75;;
34828;SDS011;21042;47.620;12.188;2022-07-23T12:56:28;5.72;;;4.60;;
34828;SDS011;21042;47.620;12.188;2022-07-23T13:01:35;5.70;;;4.43;;
34828;SDS011;21042;47.620;12.188;2022-07-23T13:04:04;6.43;;;4.63;;
34828;SDS011;21042;47.620;12.188;2022-07-23T13:06:41;7.00;;;4.97;;
34828;SDS011;21042;47.620;12.188;2022-07-23T13:09:14;8.05;;;5.28;;
34828;SDS011;21042;47.620;12.188;2022-07-23T13:11:43;5.72;;;5.03;;
34828;SDS011;21042;47.620;12.188;2022-07-23T13:14:13;7.07;;;5.18;;
34828;SDS011;21042;47.620;12.188;2022-07-23T13:16:41;6.07;;;4.97;;
34828;SDS011;21042;47.620;12.188;2022-07-23T13:19:09;7.35;;;5.20;;
34828;SDS011;21042;47.620;12.188;2022-07-23T13:21:38;7.03;;;5.28;;
34828;SDS011;21042;47.620;12.188;2022-07-23T13:24:08;8.20;;;4.90;;
34828;SDS011;21042;47.620;12.188;2022-07-23T13:26:37;6.40;;;5.35;;
34828;SDS011;21042;47.620;12.188;2022-07-23T13:29:04;6.80;;;5.32;;
34828;SDS011;21042;47.620;12.188;2022-07-23T13:31:35;7.85;;;4.80;;
34828;SDS011;21042;47.620;12.188;2022-07-23T13:34:04;7.43;;;4.97;;
34828;SDS011;21042;47.620;12.188;2022-07-23T13:36:48;6.80;;;5.32;;
34828;SDS011;21042;47.620;12.188;2022-07-23T13:39:15;6.25;;;4.60;;
34828;SDS011;21042;47.620;12.188;2022-07-23T13:41:41;5.43;;;4.63;;
34828;SDS011;21042;47.620;12.188;2022-07-23T13:44:16;7.43;;;5.55;;
34828;SDS011;21042;47.620;12.188;2022-07-23T13:46:43;8.43;;;5.60;;
34828;SDS011;21042;47.620;12.188;2022-07-23T13:49:13;8.60;;;4.90;;
34828;SDS011;21042;47.620;12.188;2022-07-23T13:51:41;7.75;;;4.88;;
34828;SDS011;21042;47.620;12.188;2022-07-23T13:56:34;5.82;;;5.05;;
34828;SDS011;21042;47.620;12.188;2022-07-23T13:59:02;7.10;;;5.13;;
34828;SDS011;21042;47.620;12.188;2022-07-23T14:01:31;7.95;;;5.28;;
34828;SDS011;21042;47.620;12.188;2022-07-23T14:04:18;7.30;;;5.43;;
34828;SDS011;21042;47.620;12.188;2022-07-23T14:06:45;6.55;;;5.57;;
34828;SDS011;21042;47.620;12.188;2022-07-23T14:09:18;6.50;;;5.05;;
34828;SDS011;21042;47.620;12.188;2022-07-23T14:14:11;7.45;;;5.80;;
34828;SDS011;21042;47.620;12.188;2022-07-23T14:16:38;10.10;;;6.25;;
34828;SDS011;21042;47.620;12.188;2022-07-23T14:21:32;9.13;;;5.68;;
34828;SDS011;21042;47.620;12.188;2022-07-23T14:23:59;6.68;;;5.35;;
34828;SDS011;21042;47.620;12.188;2022-07-23T14:26:26;8.07;;;5.93;;
34828;SDS011;21042;47.620;12.188;2022-07-23T14:28:53;6.15;;;5.50;;
34828;SDS011;21042;47.620;12.188;2022-07-23T14:31:20;6.72;;;5.53;;
34828;SDS011;21042;47.620;12.188;2022-07-23T14:33:47;7.88;;;5.65;;
34828;SDS011;21042;47.620;12.188;2022-07-23T14:36:14;11.55;;;6.38;;
34828;SDS011;21042;47.620;12.188;2022-07-23T14:38:42;10.20;;;5.97;;
34828;SDS011;21042;47.620;12.188;2022-07-23T14:41:08;6.70;;;5.32;;
34828;SDS011;21042;47.620;12.188;2022-07-23T14:43:36;7.65;;;6.00;;
34828;SDS011;21042;47.620;12.188;2022-07-23T14:46:06;8.60;;;5.80;;
34828;SDS011;21042;47.620;12.188;2022-07-23T14:48:33;8.25;;;5.30;;
34828;SDS011;21042;47.620;12.188;2022-07-23T14:53:27;9.30;;;5.70;;
34828;SDS011;21042;47.620;12.188;2022-07-23T14:55:54;11.95;;;6.32;;
34828;SDS011;21042;47.620;12.188;2022-07-23T14:58:23;6.38;;;5.43;;
34828;SDS011;21042;47.620;12.188;2022-07-23T15:00:50;6.75;;;5.78;;
34828;SDS011;21042;47.620;12.188;2022-07-23T15:05:44;6.93;;;5.78;;
34828;SDS011;21042;47.620;12.188;2022-07-23T15:08:11;9.05;;;5.20;;
34828;SDS011;21042;47.620;12.188;2022-07-23T15:10:38;8.15;;;5.30;;
34828;SDS011;21042;47.620;12.188;2022-07-23T15:13:05;6.82;;;5.57;;
34828;SDS011;21042;47.620;12.188;2022-07-23T15:15:33;9.82;;;5.40;;
34828;SDS011;21042;47.620;12.188;2022-07-23T15:20:27;7.22;;;5.43;;
34828;SDS011;21042;47.620;12.188;2022-07-23T15:23:06;6.88;;;5.15;;
34828;SDS011;21042;47.620;12.188;2022-07-23T15:25:35;8.23;;;5.18;;
34828;SDS011;21042;47.620;12.188;2022-07-23T15:28:03;8.55;;;5.55;;
34828;SDS011;21042;47.620;12.188;2022-07-23T15:30:33;8.90;;;5.30;;
34828;SDS011;21042;47.620;12.188;2022-07-23T15:33:02;9.43;;;5.20;;
34828;SDS011;21042;47.620;12.188;2022-07-23T15:35:30;9.35;;;5.57;;
34828;SDS011;21042;47.620;12.188;2022-07-23T15:37:58;7.60;;;5.15;;
34828;SDS011;21042;47.620;12.188;2022-07-23T15:40:32;7.07;;;5.13;;
34828;SDS011;21042;47.620;12.188;2022-07-23T15:42:59;10.73;;;6.72;;
34828;SDS011;21042;47.620;12.188;2022-07-23T15:45:26;7.38;;;5.32;;
34828;SDS011;21042;47.620;12.188;2022-07-23T15:47:53;6.85;;;5.80;;
34828;SDS011;21042;47.620;12.188;2022-07-23T15:50:21;12.55;;;5.50;;
34828;SDS011;21042;47.620;12.188;2022-07-23T15:55:15;7.23;;;5.80;;
34828;SDS011;21042;47.620;12.188;2022-07-23T15:57:42;7.07;;;6.20;;
34828;SDS011;21042;47.620;12.188;2022-07-23T16:00:10;7.85;;;5.82;;
34828;SDS011;21042;47.620;12.188;2022-07-23T16:02:37;6.47;;;5.20;;
34828;SDS011;21042;47.620;12.188;2022-07-23T16:07:31;7.35;;;5.43;;
34828;SDS011;21042;47.620;12.188;2022-07-23T16:10:05;8.50;;;5.53;;
34828;SDS011;21042;47.620;12.188;2022-07-23T16:12:33;7.28;;;5.55;;
34828;SDS011;21042;47.620;12.188;2022-07-23T16:15:00;6.50;;;5.50;;
34828;SDS011;21042;47.620;12.188;2022-07-23T16:17:32;10.30;;;6.15;;
34828;SDS011;21042;47.620;12.188;2022-07-23T16:19:59;12.43;;;6.70;;
34828;SDS011;21042;47.620;12.188;2022-07-23T16:22:30;9.10;;;5.82;;
34828;SDS011;21042;47.620;12.188;2022-07-23T16:24:57;8.95;;;5.78;;
34828;SDS011;21042;47.620;12.188;2022-07-23T16:27:24;9.25;;;6.72;;